createdAt,value
2018-11-23T00:00:14.835Z,72.56
2018-11-23T00:02:20.222Z,72.15
2018-11-23T00:04:25.130Z,72.41
2018-11-23T00:06:29.948Z,72.52
2018-11-23T00:08:34.792Z,72.75
2018-11-23T00:10:39.687Z,73.18
2018-11-23T00:12:44.871Z,72.76
2018-11-23T00:14:50.906Z,73.04
2018-11-23T00:17:01.865Z,72.80
2018-11-23T00:19:07.082Z,72.53
2018-11-23T00:21:11.882Z,72.64
2018-11-23T00:23:16.916Z,72.96
2018-11-23T00:25:25.569Z,72.98
2018-11-23T00:27:30.503Z,72.94
2018-11-23T00:29:35.460Z,72.77
2018-11-23T00:31:40.334Z,73.09
2018-11-23T00:33:45.698Z,73.01
2018-11-23T00:35:50.496Z,73.04
2018-11-23T00:37:55.830Z,73.44
2018-11-23T00:40:00.734Z,73.29
2018-11-23T00:42:05.779Z,73.00
2018-11-23T00:44:11.309Z,73.23
2018-11-23T00:46:16.236Z,73.51
2018-11-23T00:48:21.411Z,73.77
2018-11-23T00:50:26.917Z,73.69
2018-11-23T00:52:31.711Z,73.50
2018-11-23T00:54:36.647Z,73.30
2018-11-23T00:56:41.385Z,73.20
2018-11-23T00:58:46.169Z,73.16
2018-11-23T01:00:51.020Z,72.95
2018-11-23T01:02:56.487Z,72.94
2018-11-23T01:05:01.623Z,72.83
2018-11-23T01:07:06.730Z,72.76
2018-11-23T01:09:15.661Z,72.96
2018-11-23T01:11:21.016Z,73.35
2018-11-23T01:13:25.809Z,73.53
2018-11-23T01:15:30.586Z,73.63
2018-11-23T01:17:35.922Z,73.16
2018-11-23T01:19:41.315Z,73.34
2018-11-23T01:21:46.146Z,73.11
2018-11-23T01:23:51.198Z,72.66
2018-11-23T01:25:56.064Z,72.75
2018-11-23T01:28:00.983Z,73.13
2018-11-23T01:30:09.049Z,73.29
2018-11-23T01:32:13.887Z,73.16
2018-11-23T01:34:18.926Z,73.54
2018-11-23T01:36:23.704Z,72.96
2018-11-23T01:38:28.521Z,73.17
2018-11-23T01:40:33.257Z,73.11
2018-11-23T01:42:38.081Z,73.46
2018-11-23T01:44:47.932Z,73.28
2018-11-23T01:46:52.733Z,73.47
2018-11-23T01:48:57.557Z,73.59
2018-11-23T01:51:02.547Z,73.33
2018-11-23T01:53:07.465Z,73.36
2018-11-23T01:55:13.407Z,73.29
2018-11-23T01:57:18.422Z,73.38
2018-11-23T01:59:23.097Z,73.57
2018-11-23T02:01:27.886Z,73.11
2018-11-23T02:03:32.888Z,73.03
2018-11-23T02:05:37.692Z,72.64
2018-11-23T02:07:42.517Z,72.53
2018-11-23T02:09:47.434Z,72.13
2018-11-23T02:11:52.411Z,72.21
2018-11-23T02:13:57.291Z,72.77
2018-11-23T02:16:02.168Z,72.71
2018-11-23T02:18:06.897Z,73.10
2018-11-23T02:20:16.790Z,72.54
2018-11-23T02:22:21.635Z,73.52
2018-11-23T02:24:26.568Z,72.65
2018-11-23T02:26:31.420Z,72.71
2018-11-23T02:28:36.437Z,72.83
2018-11-23T02:30:41.348Z,72.65
2018-11-23T02:32:46.385Z,73.35
2018-11-23T02:34:51.604Z,73.18
2018-11-23T02:36:56.545Z,72.93
2018-11-23T02:39:01.712Z,73.49
2018-11-23T02:41:07.069Z,73.37
2018-11-23T02:43:12.256Z,74.00
2018-11-23T02:45:18.939Z,73.90
2018-11-23T02:47:24.353Z,73.88
2018-11-23T02:49:29.188Z,74.13
2018-11-23T02:51:33.940Z,73.68
2018-11-23T02:53:38.680Z,74.15
2018-11-23T02:55:43.780Z,73.91
2018-11-23T02:57:48.678Z,74.34
2018-11-23T02:59:53.595Z,74.43
2018-11-23T03:01:58.388Z,74.65
2018-11-23T03:04:03.119Z,74.67
2018-11-23T03:06:08.129Z,74.15
2018-11-23T03:08:13.002Z,74.18
2018-11-23T03:10:18.216Z,75.02
2018-11-23T03:12:23.138Z,74.41
2018-11-23T03:14:28.044Z,75.03
2018-11-23T03:16:32.936Z,74.54
2018-11-23T03:18:37.973Z,74.34
2018-11-23T03:20:42.973Z,74.07
2018-11-23T03:22:47.753Z,74.41
2018-11-23T03:24:52.653Z,75.14
2018-11-23T03:26:57.729Z,74.50
2018-11-23T03:29:02.704Z,74.30
2018-11-23T03:31:12.212Z,75.28
2018-11-23T03:33:12.246Z,73.73
2018-11-23T03:35:17.581Z,74.05
2018-11-23T03:37:22.701Z,74.49
2018-11-23T03:39:30.395Z,74.01
2018-11-23T03:41:33.040Z,74.12
2018-11-23T03:43:38.169Z,74.61
2018-11-23T03:45:43.231Z,74.76
2018-11-23T03:47:48.295Z,75.12
2018-11-23T03:49:53.121Z,74.95
2018-11-23T03:51:58.216Z,75.06
2018-11-23T03:54:03.091Z,74.87
2018-11-23T03:56:07.950Z,75.37
2018-11-23T03:58:13.022Z,75.45
2018-11-23T04:00:20.222Z,75.11
2018-11-23T04:02:25.382Z,75.55
2018-11-23T04:04:30.312Z,74.92
2018-11-23T04:06:35.239Z,74.87
2018-11-23T04:08:40.090Z,75.22
2018-11-23T04:10:44.945Z,75.60
2018-11-23T04:12:49.778Z,75.13
2018-11-23T04:14:54.599Z,75.59
2018-11-23T04:16:59.355Z,75.08
2018-11-23T04:19:04.299Z,75.85
2018-11-23T04:21:09.359Z,75.33
2018-11-23T04:23:14.222Z,75.05
2018-11-23T04:25:19.209Z,74.79
2018-11-23T04:27:24.401Z,74.63
2018-11-23T04:29:29.356Z,74.72
2018-11-23T04:31:34.308Z,74.79
2018-11-23T04:33:39.355Z,74.47
2018-11-23T04:35:44.335Z,74.24
2018-11-23T04:37:49.926Z,73.51
2018-11-23T04:39:54.726Z,72.87
2018-11-23T04:41:59.633Z,73.30
2018-11-23T04:44:04.647Z,73.22
2018-11-23T04:46:09.531Z,73.55
2018-11-23T04:48:14.386Z,74.16
2018-11-23T04:50:19.191Z,74.01
2018-11-23T04:52:24.427Z,73.79
2018-11-23T04:54:29.317Z,73.76
2018-11-23T04:56:34.080Z,74.19
2018-11-23T04:58:39.136Z,74.27
2018-11-23T05:00:43.908Z,73.78
2018-11-23T05:02:49.022Z,73.99
2018-11-23T05:04:53.971Z,73.74
2018-11-23T05:06:58.883Z,73.68
2018-11-23T05:09:03.772Z,73.61
2018-11-23T05:11:08.812Z,73.37
2018-11-23T05:13:13.744Z,72.00
2018-11-23T05:15:19.719Z,71.68
2018-11-23T05:17:24.699Z,71.55
2018-11-23T05:19:29.831Z,71.25
2018-11-23T05:21:34.803Z,71.24
2018-11-23T05:23:39.585Z,71.28
2018-11-23T05:25:44.469Z,70.77
2018-11-23T05:27:49.332Z,70.37
2018-11-23T05:29:54.243Z,69.65
2018-11-23T05:31:59.228Z,69.79
2018-11-23T05:34:04.157Z,69.63
2018-11-23T05:36:09.565Z,70.09
2018-11-23T05:38:14.480Z,70.50
2018-11-23T05:40:20.708Z,69.84
2018-11-23T05:42:25.787Z,69.81
2018-11-23T05:44:30.579Z,69.76
2018-11-23T05:46:35.358Z,68.83
2018-11-23T05:48:40.079Z,69.75
2018-11-23T05:50:44.869Z,69.89
2018-11-23T05:52:49.603Z,69.93
2018-11-23T05:54:54.316Z,70.15
2018-11-23T05:56:59.126Z,70.08
2018-11-23T05:59:04.101Z,69.85
2018-11-23T06:01:08.937Z,70.56
2018-11-23T06:03:14.911Z,70.37
2018-11-23T06:05:19.902Z,70.75
2018-11-23T06:07:32.472Z,70.85
2018-11-23T06:09:37.255Z,70.90
2018-11-23T06:11:42.335Z,71.51
2018-11-23T06:13:47.532Z,71.30
2018-11-23T06:15:52.532Z,71.52
2018-11-23T06:17:57.323Z,72.00
2018-11-23T06:20:02.055Z,72.07
2018-11-23T06:22:07.125Z,72.11
2018-11-23T06:24:11.971Z,71.96
2018-11-23T06:26:22.180Z,72.11
2018-11-23T06:28:27.227Z,72.46
2018-11-23T06:30:32.351Z,72.21
2018-11-23T06:32:54.003Z,72.33
2018-11-23T06:34:58.844Z,72.42
2018-11-23T06:37:04.675Z,72.57
2018-11-23T06:39:10.448Z,72.44
2018-11-23T06:41:15.704Z,72.63
2018-11-23T06:43:20.530Z,72.66
2018-11-23T06:45:25.712Z,72.09
2018-11-23T06:47:30.782Z,72.29
2018-11-23T06:49:35.631Z,72.00
2018-11-23T06:51:40.747Z,72.25
2018-11-23T06:53:45.465Z,72.48
2018-11-23T06:55:50.350Z,72.27
2018-11-23T06:57:55.240Z,72.43
2018-11-23T07:00:00.115Z,72.15
2018-11-23T07:02:05.464Z,72.65
2018-11-23T07:04:10.296Z,72.70
2018-11-23T07:06:15.233Z,72.54
2018-11-23T07:08:20.549Z,72.20
2018-11-23T07:10:25.392Z,72.76
2018-11-23T07:12:30.193Z,71.90
2018-11-23T07:14:35.058Z,72.66
2018-11-23T07:16:39.968Z,72.59
2018-11-23T07:18:45.120Z,72.32
2018-11-23T07:20:50.214Z,72.69
2018-11-23T07:22:55.217Z,72.72
2018-11-23T07:25:00.079Z,72.46
2018-11-23T07:27:05.249Z,72.57
2018-11-23T07:29:10.448Z,72.15
2018-11-23T07:31:15.552Z,72.08
2018-11-23T07:33:20.406Z,72.19
2018-11-23T07:35:25.468Z,71.95
2018-11-23T07:37:30.401Z,72.15
2018-11-23T07:39:51.763Z,72.22
2018-11-23T07:42:25.124Z,72.29
2018-11-23T07:44:30.148Z,72.63
2018-11-23T07:46:34.956Z,72.34
2018-11-23T07:48:40.045Z,72.29
2018-11-23T07:50:45.031Z,72.26
2018-11-23T07:52:50.130Z,72.05
2018-11-23T07:54:55.022Z,72.03
2018-11-23T07:56:59.944Z,72.05
2018-11-23T07:59:04.931Z,72.07
2018-11-23T08:01:09.842Z,72.05
2018-11-23T08:03:14.695Z,72.48
2018-11-23T08:05:20.522Z,72.43
2018-11-23T08:07:25.590Z,72.44
2018-11-23T08:09:30.527Z,71.82
2018-11-23T08:11:35.651Z,71.70
2018-11-23T08:13:40.621Z,71.92
2018-11-23T08:15:45.531Z,71.52
2018-11-23T08:17:50.367Z,70.70
2018-11-23T08:19:55.126Z,71.01
2018-11-23T08:22:00.211Z,70.21
2018-11-23T08:24:05.323Z,70.50
2018-11-23T08:26:10.477Z,70.51
2018-11-23T08:28:15.377Z,70.59
2018-11-23T08:30:25.712Z,70.77
2018-11-23T08:32:31.122Z,70.30
2018-11-23T08:34:36.247Z,70.50
2018-11-23T08:36:41.096Z,70.22
2018-11-23T08:38:46.104Z,69.49
2018-11-23T08:40:51.185Z,69.71
2018-11-23T08:42:56.649Z,69.32
2018-11-23T08:45:01.675Z,68.72
2018-11-23T08:47:06.838Z,68.54
2018-11-23T08:49:11.808Z,68.68
2018-11-23T08:51:16.844Z,68.25
2018-11-23T08:53:27.940Z,67.82
2018-11-23T08:55:31.440Z,68.23
2018-11-23T08:57:36.288Z,67.61
2018-11-23T08:59:41.529Z,68.29
2018-11-23T09:01:46.358Z,68.51
2018-11-23T09:03:51.335Z,68.03
2018-11-23T09:05:56.154Z,68.25
2018-11-23T09:08:00.949Z,68.03
2018-11-23T09:10:06.805Z,68.29
2018-11-23T09:12:11.605Z,67.72
2018-11-23T09:14:16.439Z,68.06
2018-11-23T09:16:21.182Z,67.09
2018-11-23T09:18:26.053Z,67.64
2018-11-23T09:20:31.121Z,66.95
2018-11-23T09:22:36.312Z,67.26
2018-11-23T09:24:41.477Z,67.52
2018-11-23T09:26:46.331Z,66.87
2018-11-23T09:28:51.166Z,66.56
2018-11-23T09:30:56.058Z,66.56
2018-11-23T09:33:00.999Z,66.68
2018-11-23T09:35:07.082Z,66.46
2018-11-23T09:37:11.831Z,66.66
2018-11-23T09:39:16.604Z,66.46
2018-11-23T09:41:21.448Z,66.09
2018-11-23T09:43:26.272Z,65.69
2018-11-23T09:45:32.499Z,64.75
2018-11-23T09:47:37.435Z,65.15
2018-11-23T09:49:42.253Z,65.40
2018-11-23T09:51:47.047Z,65.48
2018-11-23T09:53:51.962Z,65.75
2018-11-23T09:55:56.899Z,65.55
2018-11-23T09:58:01.646Z,65.59
2018-11-23T10:00:10.761Z,65.24
2018-11-23T10:02:15.565Z,65.51
2018-11-23T10:04:20.417Z,65.40
2018-11-23T10:06:25.201Z,64.65
2018-11-23T10:08:29.888Z,64.43
2018-11-23T10:10:34.623Z,63.87
2018-11-23T10:12:39.453Z,63.90
2018-11-23T10:14:44.206Z,63.67
2018-11-23T10:16:48.970Z,63.63
2018-11-23T10:18:53.802Z,63.62
2018-11-23T10:20:58.603Z,62.99
2018-11-23T10:23:03.560Z,62.13
2018-11-23T10:25:10.491Z,61.85
2018-11-23T10:27:15.372Z,61.89
2018-11-23T10:29:20.410Z,62.21
2018-11-23T10:31:26.220Z,61.55
2018-11-23T10:33:31.120Z,61.72
2018-11-23T10:35:35.991Z,61.52
2018-11-23T10:37:41.897Z,61.55
2018-11-23T10:39:46.585Z,61.22
2018-11-23T10:41:51.326Z,61.31
2018-11-23T10:43:56.137Z,60.69
2018-11-23T10:46:00.887Z,60.52
2018-11-23T10:48:06.784Z,60.66
2018-11-23T10:50:14.712Z,60.27
2018-11-23T10:52:19.797Z,60.24
2018-11-23T10:54:24.521Z,59.39
2018-11-23T10:56:29.401Z,59.34
2018-11-23T10:58:34.426Z,59.32
2018-11-23T11:00:44.206Z,59.01
2018-11-23T11:02:54.284Z,58.78
2018-11-23T11:05:04.105Z,58.35
2018-11-23T11:07:09.901Z,57.92
2018-11-23T11:09:14.635Z,57.08
2018-11-23T11:11:19.571Z,56.72
2018-11-23T11:13:24.259Z,55.90
2018-11-23T11:15:29.111Z,56.36
2018-11-23T11:17:33.932Z,56.28
2018-11-23T11:19:38.681Z,55.73
2018-11-23T11:21:43.443Z,55.46
2018-11-23T11:23:48.198Z,54.89
2018-11-23T11:25:53.370Z,53.80
2018-11-23T11:27:58.286Z,53.39
2018-11-23T11:30:03.035Z,54.01
2018-11-23T11:32:08.791Z,53.34
2018-11-23T11:34:13.591Z,53.92
2018-11-23T11:36:18.394Z,52.76
2018-11-23T11:38:23.142Z,53.02
2018-11-23T11:40:28.080Z,52.51
2018-11-23T11:42:33.035Z,53.58
2018-11-23T11:44:38.067Z,53.00
2018-11-23T11:46:43.075Z,53.30
2018-11-23T11:48:48.089Z,53.82
2018-11-23T11:50:52.930Z,53.77
2018-11-23T11:52:57.764Z,53.93
2018-11-23T11:55:02.724Z,54.21
2018-11-23T11:57:07.531Z,54.40
2018-11-23T11:59:12.432Z,54.32
2018-11-23T12:01:17.261Z,54.72
2018-11-23T12:03:22.014Z,55.20
2018-11-23T12:05:26.771Z,54.82
2018-11-23T12:07:31.794Z,55.10
2018-11-23T12:09:36.679Z,54.57
2018-11-23T12:11:41.815Z,54.85
2018-11-23T12:13:46.648Z,55.43
2018-11-23T12:15:51.438Z,55.35
2018-11-23T12:17:56.294Z,55.51
2018-11-23T12:20:01.348Z,55.22
2018-11-23T12:22:06.230Z,54.53
2018-11-23T12:24:11.167Z,54.67
2018-11-23T12:26:16.135Z,54.64
2018-11-23T12:28:20.920Z,54.65
2018-11-23T12:30:25.745Z,54.57
2018-11-23T12:32:30.576Z,54.67
2018-11-23T12:34:35.463Z,54.85
2018-11-23T12:36:40.393Z,55.11
2018-11-23T12:38:45.230Z,55.26
2018-11-23T12:40:49.992Z,55.12
2018-11-23T12:42:54.796Z,55.07
2018-11-23T12:44:59.927Z,55.05
2018-11-23T12:47:05.186Z,55.12
2018-11-23T12:49:10.282Z,55.24
2018-11-23T12:51:15.706Z,55.36
2018-11-23T12:53:20.531Z,55.26
2018-11-23T12:55:25.446Z,55.15
2018-11-23T12:57:30.416Z,55.29
2018-11-23T12:59:35.525Z,55.25
2018-11-23T13:01:40.356Z,55.51
2018-11-23T13:03:45.274Z,55.45
2018-11-23T13:05:50.953Z,55.74
2018-11-23T13:07:56.982Z,55.49
2018-11-23T13:10:01.953Z,55.51
2018-11-23T13:12:07.219Z,55.30
2018-11-23T13:14:12.210Z,55.01
2018-11-23T13:16:17.135Z,55.13
2018-11-23T13:18:22.677Z,55.52
2018-11-23T13:20:27.586Z,55.77
2018-11-23T13:22:33.088Z,55.77
2018-11-23T13:24:38.071Z,56.09
2018-11-23T13:26:42.975Z,55.87
2018-11-23T13:28:48.168Z,55.94
2018-11-23T13:30:53.054Z,55.90
2018-11-23T13:32:57.995Z,56.00
2018-11-23T13:35:02.950Z,56.04
2018-11-23T13:37:08.005Z,55.73
2018-11-23T13:39:13.477Z,55.84
2018-11-23T13:41:18.531Z,55.97
2018-11-23T13:43:23.477Z,56.09
2018-11-23T13:45:30.028Z,56.40
2018-11-23T13:47:35.341Z,55.99
2018-11-23T13:49:40.257Z,55.94
2018-11-23T13:51:45.117Z,56.26
2018-11-23T13:53:50.320Z,56.04
2018-11-23T13:55:55.130Z,56.06
2018-11-23T13:58:01.220Z,56.25
2018-11-23T14:00:08.327Z,56.37
2018-11-23T14:02:13.277Z,56.56
2018-11-23T14:04:18.148Z,56.86
2018-11-23T14:06:23.064Z,56.99
2018-11-23T14:08:28.134Z,56.96
2018-11-23T14:10:33.267Z,56.91
2018-11-23T14:12:38.574Z,57.00
2018-11-23T14:14:43.518Z,57.69
2018-11-23T14:16:48.387Z,57.50
2018-11-23T14:18:53.711Z,57.48
2018-11-23T14:20:59.232Z,58.14
2018-11-23T14:23:04.429Z,57.97
2018-11-23T14:25:12.081Z,58.59
2018-11-23T14:27:17.343Z,58.59
2018-11-23T14:29:22.794Z,58.71
2018-11-23T14:31:27.793Z,59.15
2018-11-23T14:33:33.159Z,59.29
2018-11-23T14:35:38.089Z,59.57
2018-11-23T14:37:44.281Z,59.75
2018-11-23T14:39:49.134Z,59.75
2018-11-23T14:41:54.857Z,59.90
2018-11-23T14:44:06.655Z,60.03
2018-11-23T14:46:05.036Z,60.13
2018-11-23T14:48:10.372Z,60.32
2018-11-23T14:50:19.347Z,60.29
2018-11-23T14:52:25.042Z,60.29
2018-11-23T14:54:30.629Z,60.54
2018-11-23T14:56:36.530Z,60.69
2018-11-23T14:58:42.160Z,61.01
2018-11-23T15:00:47.209Z,61.14
2018-11-23T15:02:53.446Z,61.39
2018-11-23T15:04:58.472Z,61.45
2018-11-23T15:07:03.408Z,61.79
2018-11-23T15:09:11.657Z,61.84
2018-11-23T15:11:18.450Z,62.12
2018-11-23T15:13:23.501Z,62.42
2018-11-23T15:15:29.619Z,62.13
2018-11-23T15:17:34.542Z,62.47
2018-11-23T15:19:39.330Z,62.79
2018-11-23T15:21:44.176Z,62.95
2018-11-23T15:23:48.981Z,62.95
2018-11-23T15:25:53.989Z,63.41
2018-11-23T15:27:59.133Z,63.47
2018-11-23T15:30:04.355Z,63.64
2018-11-23T15:32:09.412Z,63.67
2018-11-23T15:34:14.238Z,63.97
2018-11-23T15:36:19.329Z,64.27
2018-11-23T15:38:25.742Z,64.07
2018-11-23T15:40:31.570Z,64.30
2018-11-23T15:42:36.472Z,64.36
2018-11-23T15:44:41.909Z,64.61
2018-11-23T15:46:46.971Z,65.11
2018-11-23T15:48:52.230Z,65.02
2018-11-23T15:50:57.120Z,64.92
2018-11-23T15:53:02.173Z,65.22
2018-11-23T15:55:12.745Z,65.61
2018-11-23T15:57:17.648Z,65.65
2018-11-23T15:59:22.687Z,65.64
2018-11-23T16:01:27.460Z,65.92
2018-11-23T16:03:32.436Z,65.94
2018-11-23T16:05:37.540Z,66.24
2018-11-23T16:07:42.455Z,66.45
2018-11-23T16:09:47.341Z,66.31
2018-11-23T16:11:52.072Z,66.84
2018-11-23T16:13:56.947Z,66.55
2018-11-23T16:16:02.031Z,66.57
2018-11-23T16:18:07.571Z,66.99
2018-11-23T16:20:16.756Z,66.80
2018-11-23T16:22:22.034Z,66.90
2018-11-23T16:24:31.070Z,67.21
2018-11-23T16:26:36.307Z,67.19
2018-11-23T16:28:43.308Z,67.17
2018-11-23T16:30:50.084Z,67.46
2018-11-23T16:32:55.887Z,67.56
2018-11-23T16:35:00.942Z,67.91
2018-11-23T16:37:06.213Z,68.30
2018-11-23T16:39:12.758Z,68.20
2018-11-23T16:41:18.133Z,68.46
2018-11-23T16:43:23.228Z,68.56
2018-11-23T16:45:30.548Z,68.46
2018-11-23T16:47:36.044Z,68.55
2018-11-23T16:49:41.181Z,68.91
2018-11-23T16:51:46.183Z,69.15
2018-11-23T16:53:51.040Z,69.26
2018-11-23T16:55:56.442Z,69.36
2018-11-23T16:58:05.599Z,69.84
2018-11-23T17:00:20.004Z,69.83
2018-11-23T17:02:25.505Z,69.99
2018-11-23T17:04:31.012Z,70.11
2018-11-23T17:06:36.276Z,70.03
2018-11-23T17:08:41.440Z,70.34
2018-11-23T17:10:46.454Z,70.62
2018-11-23T17:12:51.368Z,70.42
2018-11-23T17:14:56.090Z,70.50
2018-11-23T17:17:00.803Z,70.67
2018-11-23T17:19:05.766Z,71.05
2018-11-23T17:21:10.556Z,71.04
2018-11-23T17:23:15.295Z,71.43
2018-11-23T17:25:21.413Z,71.42
2018-11-23T17:27:26.375Z,71.42
2018-11-23T17:29:31.203Z,71.69
2018-11-23T17:31:36.272Z,71.70
2018-11-23T17:33:41.266Z,71.98
2018-11-23T17:35:46.471Z,72.00
2018-11-23T17:37:51.261Z,72.26
2018-11-23T17:39:56.264Z,72.59
2018-11-23T17:42:01.165Z,72.56
2018-11-23T17:44:06.198Z,73.15
2018-11-23T17:46:11.101Z,73.18
2018-11-23T17:48:16.208Z,73.90
2018-11-23T17:50:24.630Z,74.03
2018-11-23T17:52:31.402Z,74.16
2018-11-23T17:54:37.330Z,73.92
2018-11-23T17:56:42.525Z,74.00
2018-11-23T17:58:47.568Z,74.12
2018-11-23T18:00:52.705Z,74.03
2018-11-23T18:02:59.635Z,74.03
2018-11-23T18:05:07.546Z,74.23
2018-11-23T18:07:10.605Z,74.11
2018-11-23T18:09:16.077Z,74.31
2018-11-23T18:11:21.027Z,74.27
2018-11-23T18:13:27.219Z,74.30
2018-11-23T18:15:33.557Z,74.27
2018-11-23T18:17:38.871Z,74.28
2018-11-23T18:19:44.260Z,74.54
2018-11-23T18:21:50.093Z,74.43
2018-11-23T18:23:54.936Z,74.73
2018-11-23T18:26:00.539Z,74.58
2018-11-23T18:28:06.016Z,75.02
2018-11-23T18:30:12.838Z,75.06
2018-11-23T18:32:18.022Z,74.88
2018-11-23T18:34:23.392Z,74.99
2018-11-23T18:36:28.269Z,75.06
2018-11-23T18:38:33.720Z,75.06
2018-11-23T18:40:38.680Z,75.42
2018-11-23T18:42:43.801Z,75.37
2018-11-23T18:44:49.009Z,75.54
2018-11-23T18:46:54.948Z,75.54
2018-11-23T18:49:01.100Z,75.40
2018-11-23T18:51:07.326Z,75.43
2018-11-23T18:53:12.793Z,75.52
2018-11-23T18:55:19.005Z,75.88
2018-11-23T18:57:23.913Z,75.90
2018-11-23T18:59:29.100Z,75.93
2018-11-23T19:01:34.493Z,75.93
2018-11-23T19:03:39.715Z,76.33
2018-11-23T19:05:45.030Z,76.24
2018-11-23T19:07:50.717Z,76.48
2018-11-23T19:09:56.388Z,76.09
2018-11-23T19:12:01.951Z,76.31
2018-11-23T19:14:07.661Z,76.34
2018-11-23T19:16:12.647Z,76.24
2018-11-23T19:18:17.513Z,76.56
2018-11-23T19:20:24.197Z,76.24
2018-11-23T19:22:29.315Z,76.18
2018-11-23T19:24:36.516Z,76.34
2018-11-23T19:26:48.526Z,76.48
2018-11-23T19:28:53.955Z,76.31
2018-11-23T19:31:01.946Z,76.57
2018-11-23T19:35:30.676Z,76.39
2018-11-23T19:37:38.047Z,76.70
2018-11-23T19:39:44.901Z,76.41
2018-11-23T19:41:54.895Z,76.52
2018-11-23T19:44:02.557Z,76.10
2018-11-23T19:46:13.893Z,76.28
2018-11-23T19:48:22.646Z,76.33
2018-11-23T19:50:33.605Z,76.23
2018-11-23T19:52:39.712Z,76.21
2018-11-23T19:54:49.358Z,76.24
2018-11-23T19:56:55.452Z,76.49
2018-11-23T19:59:01.307Z,76.14
2018-11-23T20:01:08.289Z,76.26
2018-11-23T20:03:15.847Z,76.22
2018-11-23T20:05:26.967Z,76.41
2018-11-23T20:07:33.730Z,76.62
2018-11-23T20:09:45.001Z,76.38
2018-11-23T20:11:54.100Z,76.13
2018-11-23T20:14:02.120Z,76.60
2018-11-23T20:16:08.805Z,76.30
2018-11-23T20:18:17.178Z,76.50
2018-11-23T20:20:25.150Z,76.53
2018-11-23T20:22:34.794Z,76.12
2018-11-23T20:24:45.889Z,76.46
2018-11-23T20:26:54.975Z,76.13
2018-11-23T20:29:05.479Z,76.32
2018-11-23T20:31:15.639Z,76.04
2018-11-23T20:33:24.865Z,75.99
2018-11-23T20:35:30.922Z,76.29
2018-11-23T20:40:08.254Z,76.17
2018-11-23T20:42:24.013Z,76.26
2018-11-23T20:44:38.986Z,76.22
2018-11-23T20:46:47.320Z,76.12
2018-11-23T20:51:40.478Z,76.12
2018-11-23T20:53:48.160Z,76.42
2018-11-23T20:56:06.236Z,76.75
2018-11-23T20:58:14.044Z,76.50
2018-11-23T21:00:23.400Z,76.67
2018-11-23T21:02:29.088Z,76.71
2018-11-23T21:04:35.045Z,76.80
2018-11-23T21:06:40.650Z,76.77
2018-11-23T21:08:48.034Z,76.54
2018-11-23T21:10:55.653Z,76.79
2018-11-23T21:13:01.328Z,77.01
2018-11-23T21:15:22.690Z,77.04
2018-11-23T21:17:28.597Z,77.13
2018-11-23T21:19:33.964Z,76.89
2018-11-23T21:21:39.320Z,76.99
2018-11-23T21:23:44.863Z,77.05
2018-11-23T21:27:51.946Z,77.22
2018-11-23T21:29:58.049Z,76.89
2018-11-23T21:32:13.185Z,76.98
2018-11-23T21:34:18.821Z,76.86
2018-11-23T21:36:24.276Z,77.15
2018-11-23T21:38:31.264Z,77.10
2018-11-23T21:40:44.319Z,77.08
2018-11-23T21:42:44.573Z,77.47
2018-11-23T21:44:49.996Z,77.18
2018-11-23T21:46:55.897Z,77.58
2018-11-23T21:49:01.276Z,77.73
2018-11-23T21:51:06.479Z,77.88
2018-11-23T21:53:11.608Z,77.48
2018-11-23T21:55:21.651Z,77.78
2018-11-23T21:57:26.917Z,77.85
2018-11-23T21:59:34.164Z,78.07
2018-11-23T22:01:46.977Z,77.93
2018-11-23T22:03:52.527Z,78.12
2018-11-23T22:05:57.667Z,78.13
2018-11-23T22:08:02.886Z,78.04
2018-11-23T22:10:13.296Z,78.48
2018-11-23T22:12:18.315Z,78.24
2018-11-23T22:14:23.594Z,78.48
2018-11-23T22:16:33.008Z,78.44
2018-11-23T22:18:38.332Z,78.60
2018-11-23T22:23:07.681Z,78.82
2018-11-23T22:25:30.184Z,78.87
2018-11-23T22:27:37.045Z,78.70
2018-11-23T22:29:42.182Z,78.70
2018-11-23T22:31:47.693Z,78.92
2018-11-23T22:33:53.268Z,78.93
2018-11-23T22:35:58.378Z,78.92
2018-11-23T22:38:03.273Z,78.72
2018-11-23T22:40:18.514Z,78.75
2018-11-23T22:42:23.935Z,79.12
2018-11-23T22:44:30.674Z,78.75
2018-11-23T22:46:36.053Z,79.08
2018-11-23T22:48:41.652Z,78.91
2018-11-23T22:50:46.692Z,78.96
2018-11-23T22:52:51.788Z,78.94
2018-11-23T22:54:56.918Z,78.93
2018-11-23T22:57:02.066Z,79.26
2018-11-23T22:59:07.046Z,79.44
2018-11-23T23:01:12.370Z,79.33
2018-11-23T23:03:17.661Z,79.46
2018-11-23T23:05:24.798Z,79.31
2018-11-23T23:07:30.390Z,79.24
2018-11-23T23:09:35.917Z,79.21
2018-11-23T23:11:41.901Z,79.33
2018-11-23T23:13:46.978Z,79.37
2018-11-23T23:15:52.433Z,79.37
2018-11-23T23:17:57.437Z,79.32
2018-11-23T23:20:03.511Z,79.25
2018-11-23T23:22:08.771Z,79.11
2018-11-23T23:24:14.267Z,79.41
2018-11-23T23:26:20.243Z,79.54
2018-11-23T23:28:25.627Z,79.14
2018-11-23T23:30:30.612Z,79.34
2018-11-23T23:32:35.766Z,79.35
2018-11-23T23:34:40.662Z,79.08
2018-11-23T23:36:45.660Z,78.95
2018-11-23T23:38:50.477Z,79.05
2018-11-23T23:40:55.374Z,79.40
2018-11-23T23:43:00.390Z,79.41
2018-11-23T23:45:07.113Z,79.20
2018-11-23T23:47:12.131Z,79.21
2018-11-23T23:49:17.025Z,79.05
2018-11-23T23:51:21.947Z,79.18
2018-11-23T23:53:28.323Z,79.02
2018-11-23T23:55:34.553Z,78.87
2018-11-23T23:57:40.559Z,78.77
2018-11-23T23:59:45.739Z,78.82
